createdAt,value
2023-04-13T00:00:19.132Z,6.91
2023-04-13T00:01:19.153Z,6.89
2023-04-13T00:02:19.257Z,6.87
2023-04-13T00:03:19.304Z,6.97
2023-04-13T00:04:19.243Z,6.95
2023-04-13T00:05:19.269Z,6.94
2023-04-13T00:06:19.255Z,7.02
2023-04-13T00:07:19.285Z,6.94
2023-04-13T00:08:19.288Z,6.98
2023-04-13T00:09:19.313Z,7.02
2023-04-13T00:10:19.330Z,7.06
2023-04-13T00:11:19.350Z,7.05
2023-04-13T00:12:19.370Z,6.92
2023-04-13T00:13:19.385Z,7.02
2023-04-13T00:14:19.408Z,6.99
2023-04-13T00:15:19.430Z,6.98
2023-04-13T00:16:19.515Z,7.03
2023-04-13T00:17:19.464Z,6.94
2023-04-13T00:18:19.488Z,6.97
2023-04-13T00:19:19.510Z,6.99
2023-04-13T00:20:19.529Z,6.98
2023-04-13T00:21:19.542Z,7.02
2023-04-13T00:22:19.564Z,6.88
2023-04-13T00:23:19.582Z,6.95
2023-04-13T00:24:19.601Z,6.92
2023-04-13T00:25:19.619Z,6.97
2023-04-13T00:26:19.637Z,6.88
2023-04-13T00:27:19.661Z,6.89
2023-04-13T00:28:19.681Z,6.91
2023-04-13T00:29:19.698Z,6.89
2023-04-13T00:30:19.718Z,6.87
2023-04-13T00:31:19.766Z,6.81
2023-04-13T00:32:19.755Z,6.84
2023-04-13T00:33:19.795Z,6.80
2023-04-13T00:34:19.803Z,6.84
2023-04-13T00:35:19.826Z,6.81
2023-04-13T00:36:19.837Z,6.87
2023-04-13T00:37:19.856Z,6.81
2023-04-13T00:38:19.875Z,6.81
2023-04-13T00:39:19.893Z,6.81
2023-04-13T00:40:19.950Z,6.77
2023-04-13T00:41:19.976Z,6.79
2023-04-13T00:42:19.967Z,6.87
2023-04-13T00:43:19.974Z,6.80
2023-04-13T00:44:20.000Z,6.87
2023-04-13T00:45:20.015Z,6.87
2023-04-13T00:46:20.087Z,6.81
2023-04-13T00:47:20.052Z,6.79
2023-04-13T00:48:20.069Z,6.79
2023-04-13T00:49:20.091Z,6.70
2023-04-13T00:50:20.112Z,6.76
2023-04-13T00:51:20.128Z,6.77
2023-04-13T00:52:20.145Z,6.76
2023-04-13T00:53:20.189Z,6.77
2023-04-13T00:54:20.187Z,6.71
2023-04-13T00:55:20.212Z,6.84
2023-04-13T00:56:20.226Z,6.77
2023-04-13T00:57:20.246Z,6.76
2023-04-13T00:58:20.267Z,6.73
2023-04-13T00:59:20.291Z,6.76
2023-04-13T01:00:20.309Z,6.76
2023-04-13T01:01:20.361Z,6.79
2023-04-13T01:02:20.488Z,6.79
2023-04-13T01:03:20.438Z,6.80
2023-04-13T01:04:20.466Z,6.81
2023-04-13T01:05:20.412Z,6.80
2023-04-13T01:06:20.423Z,6.79
2023-04-13T01:07:20.441Z,6.89
2023-04-13T01:08:20.460Z,6.87
2023-04-13T01:09:20.479Z,6.92
2023-04-13T01:10:20.504Z,6.95
2023-04-13T01:11:20.518Z,7.02
2023-04-13T01:12:20.535Z,6.99
2023-04-13T01:13:20.590Z,7.05
2023-04-13T01:14:20.592Z,7.07
2023-04-13T01:15:20.594Z,7.07
2023-04-13T01:16:20.732Z,6.89
2023-04-13T01:17:20.664Z,6.97
2023-04-13T01:18:20.658Z,6.94
2023-04-13T01:19:20.678Z,6.92
2023-04-13T01:20:20.700Z,6.95
2023-04-13T01:21:20.712Z,7.05
2023-04-13T01:22:20.759Z,6.92
2023-04-13T01:23:20.751Z,6.94
2023-04-13T01:24:20.769Z,7.02
2023-04-13T01:25:20.794Z,7.06
2023-04-13T01:26:20.817Z,6.99
2023-04-13T01:27:20.852Z,6.95
2023-04-13T01:28:20.847Z,6.99
2023-04-13T01:29:20.871Z,6.97
2023-04-13T01:30:20.890Z,6.99
2023-04-13T01:31:20.969Z,6.98
2023-04-13T01:32:20.927Z,6.95
2023-04-13T01:33:20.947Z,6.95
2023-04-13T01:34:20.973Z,6.91
2023-04-13T01:35:20.987Z,6.98
2023-04-13T01:36:21.012Z,7.02
2023-04-13T01:37:21.025Z,6.89
2023-04-13T01:38:21.054Z,6.98
2023-04-13T01:39:21.062Z,6.92
2023-04-13T01:40:21.085Z,6.88
2023-04-13T01:41:21.106Z,6.91
2023-04-13T01:42:21.121Z,6.87
2023-04-13T01:43:21.162Z,6.89
2023-04-13T01:44:21.164Z,6.87
2023-04-13T01:45:21.214Z,6.99
2023-04-13T01:46:21.240Z,6.94
2023-04-13T01:47:21.245Z,6.99
2023-04-13T01:48:21.251Z,6.99
2023-04-13T01:49:21.260Z,6.98
2023-04-13T01:50:21.279Z,7.02
2023-04-13T01:51:21.306Z,7.10
2023-04-13T01:52:21.316Z,6.89
2023-04-13T01:53:21.339Z,7.06
2023-04-13T01:54:21.357Z,7.02
2023-04-13T01:55:21.383Z,7.09
2023-04-13T01:56:21.394Z,7.12
2023-04-13T01:57:21.417Z,7.21
2023-04-13T01:58:21.449Z,7.27
2023-04-13T01:59:21.459Z,7.23
2023-04-13T02:00:21.472Z,7.28
2023-04-13T02:01:21.573Z,7.28
2023-04-13T02:02:21.641Z,7.37
2023-04-13T02:03:21.572Z,7.42
2023-04-13T02:04:21.679Z,7.39
2023-04-13T02:05:21.573Z,7.46
2023-04-13T02:06:21.597Z,7.45
2023-04-13T02:07:21.614Z,7.46
2023-04-13T02:08:21.633Z,7.50
2023-04-13T02:09:21.653Z,7.57
2023-04-13T02:10:21.675Z,7.55
2023-04-13T02:11:21.693Z,7.52
2023-04-13T02:12:21.718Z,7.53
2023-04-13T02:13:21.734Z,7.64
2023-04-13T02:14:21.770Z,7.67
2023-04-13T02:15:21.782Z,7.71
2023-04-13T02:16:21.820Z,7.71
2023-04-13T02:17:21.826Z,7.67
2023-04-13T02:18:21.835Z,7.68
2023-04-13T02:19:21.891Z,7.85
2023-04-13T02:20:21.871Z,7.72
2023-04-13T02:21:21.892Z,7.71
2023-04-13T02:22:21.911Z,7.79
2023-04-13T02:23:21.932Z,7.72
2023-04-13T02:24:21.951Z,7.71
2023-04-13T02:25:21.974Z,7.87
2023-04-13T02:26:21.989Z,7.83
2023-04-13T02:27:22.010Z,7.85
2023-04-13T02:28:22.034Z,7.87
2023-04-13T02:29:22.050Z,7.87
2023-04-13T02:30:22.066Z,7.90
2023-04-13T02:31:22.112Z,7.87
2023-04-13T02:32:22.130Z,7.89
2023-04-13T02:33:22.137Z,7.95
2023-04-13T02:34:22.155Z,7.92
2023-04-13T02:35:22.176Z,8.01
2023-04-13T02:36:22.191Z,7.97
2023-04-13T02:37:22.217Z,8.00
2023-04-13T02:38:22.237Z,7.95
2023-04-13T02:39:22.256Z,8.00
2023-04-13T02:40:22.280Z,8.00
2023-04-13T02:41:22.308Z,7.95
2023-04-13T02:42:22.316Z,8.01
2023-04-13T02:43:22.333Z,7.97
2023-04-13T02:44:22.359Z,7.93
2023-04-13T02:45:22.372Z,7.97
2023-04-13T02:46:22.510Z,7.95
2023-04-13T02:47:22.443Z,7.97
2023-04-13T02:48:22.435Z,8.04
2023-04-13T02:49:22.457Z,7.98
2023-04-13T02:50:22.479Z,8.08
2023-04-13T02:51:22.497Z,8.08
2023-04-13T02:52:22.519Z,8.02
2023-04-13T02:53:22.539Z,8.04
2023-04-13T02:54:22.555Z,8.07
2023-04-13T02:55:22.581Z,8.04
2023-04-13T02:56:22.615Z,8.07
2023-04-13T02:57:22.617Z,8.01
2023-04-13T02:58:22.642Z,8.18
2023-04-13T02:59:22.675Z,8.16
2023-04-13T03:00:22.677Z,8.15
2023-04-13T03:01:22.715Z,8.16
2023-04-13T03:02:22.797Z,8.16
2023-04-13T03:03:22.825Z,8.15
2023-04-13T03:04:22.789Z,8.19
2023-04-13T03:05:22.817Z,8.20
2023-04-13T03:06:22.802Z,8.20
2023-04-13T03:07:22.825Z,8.19
2023-04-13T03:08:22.845Z,8.20
2023-04-13T03:09:22.864Z,8.20
2023-04-13T03:10:22.900Z,8.23
2023-04-13T03:11:22.900Z,8.30
2023-04-13T03:12:22.929Z,8.33
2023-04-13T03:13:22.950Z,8.28
2023-04-13T03:14:22.964Z,8.36
2023-04-13T03:15:22.994Z,8.28
2023-04-13T03:16:23.022Z,8.26
2023-04-13T03:17:23.064Z,8.30
2023-04-13T03:18:23.043Z,8.33
2023-04-13T03:19:23.068Z,8.36
2023-04-13T03:20:23.083Z,8.36
2023-04-13T03:21:23.119Z,8.36
2023-04-13T03:22:23.132Z,8.37
2023-04-13T03:23:23.151Z,8.34
2023-04-13T03:24:23.171Z,8.34
2023-04-13T03:25:23.193Z,8.43
2023-04-13T03:26:23.221Z,8.44
2023-04-13T03:27:23.227Z,8.43
2023-04-13T03:28:23.289Z,8.50
2023-04-13T03:29:23.271Z,8.52
2023-04-13T03:30:23.292Z,8.50
2023-04-13T03:31:23.459Z,8.56
2023-04-13T03:32:23.409Z,8.48
2023-04-13T03:33:23.356Z,8.48
2023-04-13T03:34:23.373Z,8.44
2023-04-13T03:35:23.398Z,8.56
2023-04-13T03:36:23.416Z,8.50
2023-04-13T03:37:23.435Z,8.47
2023-04-13T03:38:23.457Z,8.53
2023-04-13T03:39:23.473Z,8.55
2023-04-13T03:40:23.497Z,8.48
2023-04-13T03:41:23.519Z,8.58
2023-04-13T03:42:23.546Z,8.59
2023-04-13T03:43:23.564Z,8.56
2023-04-13T03:44:23.584Z,8.55
2023-04-13T03:45:23.601Z,8.52
2023-04-13T03:46:23.635Z,8.48
2023-04-13T03:47:23.662Z,8.58
2023-04-13T03:48:23.661Z,8.56
2023-04-13T03:49:23.687Z,8.53
2023-04-13T03:50:23.702Z,8.66
2023-04-13T03:51:23.741Z,8.65
2023-04-13T03:52:23.748Z,8.66
2023-04-13T03:53:23.764Z,8.68
2023-04-13T03:54:23.787Z,8.70
2023-04-13T03:55:23.800Z,8.66
2023-04-13T03:56:23.835Z,8.70
2023-04-13T03:57:23.854Z,8.71
2023-04-13T03:58:23.868Z,8.70
2023-04-13T03:59:23.884Z,8.71
2023-04-13T04:00:23.905Z,8.73
2023-04-13T04:01:23.929Z,8.71
2023-04-13T04:02:24.037Z,8.76
2023-04-13T04:03:24.004Z,8.71
2023-04-13T04:04:24.077Z,8.73
2023-04-13T04:05:24.019Z,8.66
2023-04-13T04:06:24.028Z,8.71
2023-04-13T04:07:24.052Z,8.73
2023-04-13T04:08:24.076Z,8.65
2023-04-13T04:09:24.094Z,8.62
2023-04-13T04:10:24.114Z,8.65
2023-04-13T04:11:24.131Z,8.74
2023-04-13T04:12:24.151Z,8.68
2023-04-13T04:13:24.174Z,8.66
2023-04-13T04:14:24.200Z,8.73
2023-04-13T04:15:24.224Z,8.74
2023-04-13T04:16:24.281Z,8.71
2023-04-13T04:17:24.256Z,8.66
2023-04-13T04:18:24.275Z,8.76
2023-04-13T04:19:24.295Z,8.65
2023-04-13T04:20:24.317Z,8.66
2023-04-13T04:21:24.337Z,8.66
2023-04-13T04:22:24.357Z,8.70
2023-04-13T04:23:24.378Z,8.62
2023-04-13T04:24:24.399Z,8.63
2023-04-13T04:25:24.419Z,8.76
2023-04-13T04:26:24.444Z,8.76
2023-04-13T04:27:24.461Z,8.66
2023-04-13T04:28:24.481Z,8.70
2023-04-13T04:29:24.500Z,8.68
2023-04-13T04:30:24.521Z,8.73
2023-04-13T04:31:24.602Z,8.70
2023-04-13T04:32:24.619Z,8.71
2023-04-13T04:33:24.583Z,8.71
2023-04-13T04:34:24.603Z,8.65
2023-04-13T04:35:24.624Z,8.79
2023-04-13T04:36:24.669Z,8.79
2023-04-13T04:37:24.661Z,8.70
2023-04-13T04:38:24.685Z,8.79
2023-04-13T04:39:24.705Z,8.80
2023-04-13T04:40:24.727Z,8.80
2023-04-13T04:41:24.751Z,8.81
2023-04-13T04:42:24.774Z,8.80
2023-04-13T04:43:24.791Z,8.76
2023-04-13T04:44:24.814Z,8.81
2023-04-13T04:45:24.857Z,8.76
2023-04-13T04:46:24.923Z,8.71
2023-04-13T04:47:24.879Z,8.87
2023-04-13T04:48:24.897Z,8.79
2023-04-13T04:49:24.913Z,8.77
2023-04-13T04:50:24.934Z,8.77
2023-04-13T04:51:24.959Z,8.80
2023-04-13T04:52:25.204Z,8.73
2023-04-13T04:53:24.994Z,8.79
2023-04-13T04:54:25.022Z,8.84
2023-04-13T04:55:25.035Z,8.87
2023-04-13T04:56:25.060Z,8.87
2023-04-13T04:57:25.077Z,8.96
2023-04-13T04:58:25.100Z,8.96
2023-04-13T04:59:25.120Z,8.96
2023-04-13T05:00:25.150Z,8.87
2023-04-13T05:01:25.212Z,9.04
2023-04-13T05:02:25.309Z,8.91
2023-04-13T05:03:25.218Z,8.84
2023-04-13T05:04:25.221Z,8.91
2023-04-13T05:05:25.310Z,8.83
2023-04-13T05:06:25.265Z,8.96
2023-04-13T05:07:25.287Z,8.99
2023-04-13T05:08:25.306Z,9.02
2023-04-13T05:09:25.328Z,8.94
2023-04-13T05:10:25.349Z,8.95
2023-04-13T05:11:25.369Z,8.94
2023-04-13T05:12:25.395Z,9.05
2023-04-13T05:13:25.415Z,9.01
2023-04-13T05:14:25.460Z,8.96
2023-04-13T05:15:25.509Z,9.04
2023-04-13T05:16:25.499Z,8.96
2023-04-13T05:17:25.536Z,8.96
2023-04-13T05:18:25.517Z,8.98
2023-04-13T05:19:25.532Z,8.96
2023-04-13T05:20:25.566Z,9.08
2023-04-13T05:21:25.579Z,8.99
2023-04-13T05:22:25.623Z,8.99
2023-04-13T05:23:25.619Z,9.04
2023-04-13T05:24:25.641Z,8.98
2023-04-13T05:25:25.683Z,9.02
2023-04-13T05:26:25.737Z,9.04
2023-04-13T05:27:25.716Z,9.05
2023-04-13T05:28:25.723Z,9.10
2023-04-13T05:29:25.762Z,9.13
2023-04-13T05:30:25.766Z,9.14
2023-04-13T05:31:25.840Z,9.11
2023-04-13T05:32:25.832Z,9.13
2023-04-13T05:33:25.824Z,9.02
2023-04-13T05:34:25.850Z,9.04
2023-04-13T05:35:25.868Z,9.08
2023-04-13T05:36:25.890Z,8.95
2023-04-13T05:37:25.915Z,8.98
2023-04-13T05:38:25.934Z,9.04
2023-04-13T05:39:25.969Z,9.05
2023-04-13T05:40:25.980Z,8.95
2023-04-13T05:41:25.996Z,9.05
2023-04-13T05:42:26.020Z,9.01
2023-04-13T05:43:26.034Z,8.96
2023-04-13T05:44:26.057Z,8.96
2023-04-13T05:45:26.079Z,8.94
2023-04-13T05:46:26.154Z,8.94
2023-04-13T05:47:26.155Z,8.81
2023-04-13T05:48:26.145Z,8.86
2023-04-13T05:49:26.177Z,8.86
2023-04-13T05:50:26.180Z,8.91
2023-04-13T05:51:26.200Z,8.87
2023-04-13T05:52:26.235Z,8.81
2023-04-13T05:53:26.244Z,8.77
2023-04-13T05:54:26.270Z,8.79
2023-04-13T05:55:26.293Z,8.79
2023-04-13T05:56:26.310Z,8.81
2023-04-13T05:57:26.327Z,8.81
2023-04-13T05:58:26.392Z,8.76
2023-04-13T05:59:26.365Z,8.80
2023-04-13T06:00:26.392Z,8.81
2023-04-13T06:01:26.406Z,8.76
2023-04-13T06:02:26.797Z,8.77
2023-04-13T06:03:26.692Z,8.76
2023-04-13T06:04:26.631Z,8.79
2023-04-13T06:05:26.528Z,8.81
2023-04-13T06:06:26.522Z,8.92
2023-04-13T06:07:26.530Z,8.74
2023-04-13T06:08:28.912Z,8.77
2023-04-13T06:09:26.572Z,8.73
2023-04-13T06:10:26.618Z,8.83
2023-04-13T06:11:26.610Z,8.89
2023-04-13T06:12:26.636Z,8.79
2023-04-13T06:13:26.656Z,8.86
2023-04-13T06:14:26.677Z,8.84
2023-04-13T06:15:26.698Z,8.87
2023-04-13T06:16:26.769Z,8.87
2023-04-13T06:17:26.796Z,8.95
2023-04-13T06:18:26.771Z,8.94
2023-04-13T06:19:28.882Z,8.96
2023-04-13T06:20:26.804Z,8.94
2023-04-13T06:21:26.830Z,9.14
2023-04-13T06:22:26.846Z,9.14
2023-04-13T06:23:26.866Z,9.20
2023-04-13T06:24:26.886Z,9.26
2023-04-13T06:25:26.908Z,9.23
2023-04-13T06:26:26.929Z,9.29
2023-04-13T06:27:26.955Z,9.38
2023-04-13T06:28:26.976Z,9.42
2023-04-13T06:29:26.993Z,9.58
2023-04-13T06:30:27.018Z,9.56
2023-04-13T06:31:27.116Z,9.61
2023-04-13T06:32:27.078Z,9.64
2023-04-13T06:33:27.078Z,9.61
2023-04-13T06:34:27.101Z,9.66
2023-04-13T06:35:27.135Z,9.76
2023-04-13T06:36:27.160Z,9.68
2023-04-13T06:37:27.169Z,9.78
2023-04-13T06:38:27.194Z,9.76
2023-04-13T06:39:28.583Z,9.81
2023-04-13T06:40:27.251Z,9.89
2023-04-13T06:41:27.278Z,9.99
2023-04-13T06:42:27.272Z,9.93
2023-04-13T06:43:29.839Z,10.04
2023-04-13T06:44:27.319Z,9.94
2023-04-13T06:45:27.339Z,9.99
2023-04-13T06:46:27.424Z,10.04
2023-04-13T06:47:27.413Z,9.97
2023-04-13T06:48:27.410Z,9.97
2023-04-13T06:49:27.442Z,10.01
2023-04-13T06:50:27.475Z,10.01
2023-04-13T06:51:27.468Z,9.96
2023-04-13T06:52:27.496Z,10.01
2023-04-13T06:53:27.531Z,10.07
2023-04-13T06:54:27.548Z,10.04
2023-04-13T06:55:27.556Z,10.01
2023-04-13T06:56:27.598Z,10.04
2023-04-13T06:57:27.607Z,10.07
2023-04-13T06:58:27.624Z,10.18
2023-04-13T06:59:27.644Z,10.22
2023-04-13T07:00:30.501Z,10.27
2023-04-13T07:01:27.812Z,10.41
2023-04-13T07:02:27.822Z,10.61
2023-04-13T07:03:27.798Z,10.59
2023-04-13T07:04:30.753Z,10.78
2023-04-13T07:05:27.855Z,10.89
2023-04-13T07:06:27.819Z,10.85
2023-04-13T07:07:27.825Z,10.82
2023-04-13T07:08:27.848Z,10.92
2023-04-13T07:09:27.870Z,10.85
2023-04-13T07:10:27.905Z,10.85
2023-04-13T07:11:27.917Z,10.88
2023-04-13T07:12:27.937Z,10.89
2023-04-13T07:13:27.969Z,10.85
2023-04-13T07:14:27.983Z,10.81
2023-04-13T07:15:28.014Z,10.79
2023-04-13T07:16:28.139Z,10.74
2023-04-13T07:17:28.100Z,10.76
2023-04-13T07:18:28.071Z,10.79
2023-04-13T07:19:28.099Z,10.84
2023-04-13T07:20:28.120Z,10.84
2023-04-13T07:21:28.150Z,10.88
2023-04-13T07:22:28.163Z,10.89
2023-04-13T07:23:28.185Z,10.94
2023-04-13T07:24:29.842Z,11.02
2023-04-13T07:25:28.233Z,11.04
2023-04-13T07:26:28.266Z,11.11
2023-04-13T07:27:28.282Z,11.27
2023-04-13T07:28:28.305Z,11.33
2023-04-13T07:29:28.330Z,11.40
2023-04-13T07:30:28.347Z,11.37
2023-04-13T07:31:28.386Z,11.47
2023-04-13T07:32:31.307Z,11.58
2023-04-13T07:33:28.414Z,11.62
2023-04-13T07:34:28.443Z,11.69
2023-04-13T07:35:28.460Z,11.73
2023-04-13T07:36:28.482Z,11.73
2023-04-13T07:37:28.535Z,11.85
2023-04-13T07:38:28.530Z,11.86
2023-04-13T07:39:28.558Z,11.98
2023-04-13T07:40:28.582Z,11.99
2023-04-13T07:41:28.597Z,12.16
2023-04-13T07:42:28.624Z,12.17
2023-04-13T07:43:28.645Z,12.09
2023-04-13T07:44:28.675Z,12.31
2023-04-13T07:45:28.690Z,12.35
2023-04-13T07:46:28.724Z,12.38
2023-04-13T07:47:28.776Z,12.41
2023-04-13T07:48:28.758Z,12.50
2023-04-13T07:49:28.785Z,12.59
2023-04-13T07:50:28.814Z,12.52
2023-04-13T07:51:28.828Z,12.49
2023-04-13T07:52:28.879Z,12.45
2023-04-13T07:53:28.897Z,12.41
2023-04-13T07:54:28.900Z,12.37
2023-04-13T07:55:28.921Z,12.28
2023-04-13T07:56:28.948Z,12.49
2023-04-13T07:57:28.970Z,12.39
2023-04-13T07:58:28.995Z,12.42
2023-04-13T07:59:29.017Z,12.42
2023-04-13T08:00:29.044Z,12.45
2023-04-13T08:01:29.090Z,12.50
2023-04-13T08:02:29.299Z,12.54
2023-04-13T08:03:29.177Z,12.54
2023-04-13T08:04:29.239Z,12.53
2023-04-13T08:05:29.285Z,12.54
2023-04-13T08:06:29.181Z,12.52
2023-04-13T08:07:29.239Z,12.54
2023-04-13T08:08:29.231Z,12.54
2023-04-13T08:09:29.256Z,12.52
2023-04-13T08:10:29.279Z,12.50
2023-04-13T08:11:29.300Z,12.42
2023-04-13T08:12:29.330Z,12.28
2023-04-13T08:13:29.347Z,12.20
2023-04-13T08:14:29.374Z,12.24
2023-04-13T08:15:29.398Z,12.12
2023-04-13T08:16:29.479Z,12.14
2023-04-13T08:17:29.501Z,12.14
2023-04-13T08:18:29.478Z,12.28
2023-04-13T08:19:29.502Z,12.19
2023-04-13T08:20:29.520Z,12.29
2023-04-13T08:21:29.537Z,12.28
2023-04-13T08:22:29.574Z,12.28
2023-04-13T08:23:29.594Z,12.31
2023-04-13T08:24:29.620Z,12.35
2023-04-13T08:25:29.647Z,12.41
2023-04-13T08:26:29.658Z,12.57
2023-04-13T08:27:29.679Z,12.41
2023-04-13T08:28:32.001Z,12.54
2023-04-13T08:29:29.726Z,12.60
2023-04-13T08:30:29.790Z,12.74
2023-04-13T08:31:29.808Z,12.82
2023-04-13T08:32:29.821Z,12.93
2023-04-13T08:33:29.825Z,12.97
2023-04-13T08:34:29.844Z,12.95
2023-04-13T08:35:29.871Z,12.87
2023-04-13T08:36:29.906Z,13.05
2023-04-13T08:37:29.915Z,12.96
2023-04-13T08:38:29.938Z,13.07
2023-04-13T08:39:29.961Z,13.05
2023-04-13T08:40:29.989Z,12.96
2023-04-13T08:41:30.013Z,12.93
2023-04-13T08:42:30.049Z,13.04
2023-04-13T08:43:30.065Z,13.11
2023-04-13T08:44:30.091Z,13.28
2023-04-13T08:45:30.109Z,13.26
2023-04-13T08:46:30.128Z,13.41
2023-04-13T08:47:30.210Z,13.52
2023-04-13T08:48:36.361Z,13.55
2023-04-13T08:49:30.209Z,13.69
2023-04-13T08:50:30.224Z,13.77
2023-04-13T08:51:30.245Z,13.70
2023-04-13T08:52:30.269Z,13.77
2023-04-13T08:53:30.295Z,13.77
2023-04-13T08:54:30.319Z,13.77
2023-04-13T08:55:30.342Z,13.92
2023-04-13T08:56:44.419Z,13.79
2023-04-13T08:57:30.399Z,13.69
2023-04-13T08:58:30.417Z,13.69
2023-04-13T08:59:30.439Z,13.62
2023-04-13T09:00:30.476Z,13.57
2023-04-13T09:01:30.569Z,13.66
2023-04-13T09:02:30.840Z,13.70
2023-04-13T09:03:30.669Z,13.55
2023-04-13T09:04:30.620Z,13.57
2023-04-13T09:05:30.584Z,13.55
2023-04-13T09:06:30.609Z,13.57
2023-04-13T09:07:30.631Z,13.54
2023-04-13T09:08:30.656Z,13.55
2023-04-13T09:09:30.683Z,13.45
2023-04-13T09:10:30.705Z,13.48
2023-04-13T09:11:30.729Z,13.46
2023-04-13T09:12:30.753Z,13.49
2023-04-13T09:13:30.793Z,13.51
2023-04-13T09:14:30.804Z,13.54
2023-04-13T09:15:30.829Z,13.64
2023-04-13T09:16:30.861Z,13.79
2023-04-13T09:17:30.925Z,13.81
2023-04-13T09:18:30.901Z,13.82
2023-04-13T09:19:30.932Z,13.79
2023-04-13T09:20:30.948Z,13.87
2023-04-13T09:21:30.973Z,13.84
2023-04-13T09:22:31.005Z,13.95
2023-04-13T09:23:31.038Z,14.04
2023-04-13T09:24:31.055Z,13.87
2023-04-13T09:25:31.073Z,13.88
2023-04-13T09:26:31.102Z,13.79
2023-04-13T09:27:31.123Z,13.79
2023-04-13T09:28:31.148Z,13.75
2023-04-13T09:29:31.178Z,13.78
2023-04-13T09:30:31.208Z,13.66
2023-04-13T09:31:31.253Z,13.62
2023-04-13T09:32:31.292Z,13.57
2023-04-13T09:33:31.274Z,13.57
2023-04-13T09:34:31.313Z,13.54
2023-04-13T09:35:31.324Z,13.52
2023-04-13T09:36:31.347Z,13.59
2023-04-13T09:37:31.372Z,13.44
2023-04-13T09:38:31.396Z,13.45
2023-04-13T09:39:31.417Z,13.41
2023-04-13T09:40:31.446Z,13.38
2023-04-13T09:41:31.465Z,13.29
2023-04-13T09:42:31.492Z,13.33
2023-04-13T09:43:31.516Z,13.38
2023-04-13T09:44:31.541Z,13.29
2023-04-13T09:45:31.568Z,13.32
2023-04-13T09:46:31.625Z,13.46
2023-04-13T09:47:31.618Z,13.52
2023-04-13T09:48:31.642Z,13.64
2023-04-13T09:49:31.660Z,13.62
2023-04-13T09:50:31.687Z,13.79
2023-04-13T09:51:31.715Z,13.79
2023-04-13T09:52:31.760Z,13.77
2023-04-13T09:53:31.761Z,13.77
2023-04-13T09:54:31.798Z,13.75
2023-04-13T09:55:31.814Z,13.75
2023-04-13T09:56:31.851Z,13.75
2023-04-13T09:57:31.879Z,13.81
2023-04-13T09:58:31.894Z,13.78
2023-04-13T09:59:31.910Z,13.71
2023-04-13T10:00:31.933Z,13.66
2023-04-13T10:01:32.064Z,13.64
2023-04-13T10:02:32.161Z,13.60
2023-04-13T10:03:32.189Z,13.63
2023-04-13T10:04:32.055Z,13.57
2023-04-13T10:05:32.093Z,13.45
2023-04-13T10:06:32.080Z,13.44
2023-04-13T10:07:32.116Z,13.29
2023-04-13T10:08:38.137Z,13.33
2023-04-13T10:09:32.155Z,13.30
2023-04-13T10:10:32.176Z,13.19
2023-04-13T10:11:32.201Z,13.30
2023-04-13T10:12:32.231Z,13.17
2023-04-13T10:13:32.254Z,13.28
2023-04-13T10:14:32.276Z,13.33
2023-04-13T10:15:32.316Z,13.44
2023-04-13T10:16:32.418Z,13.41
2023-04-13T10:17:32.414Z,13.28
2023-04-13T10:18:32.521Z,13.30
2023-04-13T10:19:32.402Z,13.46
2023-04-13T10:20:32.427Z,13.59
2023-04-13T10:21:32.455Z,13.57
2023-04-13T10:22:32.472Z,13.67
2023-04-13T10:23:32.498Z,13.78
2023-04-13T10:24:32.524Z,14.04
2023-04-13T10:25:34.499Z,14.12
2023-04-13T10:26:32.575Z,14.12
2023-04-13T10:27:32.595Z,14.32
2023-04-13T10:28:32.625Z,14.33
2023-04-13T10:29:32.649Z,14.35
2023-04-13T10:30:32.677Z,14.46
2023-04-13T10:31:32.703Z,14.60
2023-04-13T10:32:32.737Z,14.62
2023-04-13T10:33:32.752Z,14.75
2023-04-13T10:34:32.769Z,14.78
2023-04-13T10:35:32.800Z,14.84
2023-04-13T10:36:32.824Z,14.91
2023-04-13T10:37:32.863Z,14.96
2023-04-13T10:38:32.871Z,14.94
2023-04-13T10:39:32.897Z,15.06
2023-04-13T10:40:32.919Z,15.02
2023-04-13T10:41:32.946Z,14.92
2023-04-13T10:42:47.214Z,15.06
2023-04-13T10:43:32.998Z,14.91
2023-04-13T10:44:38.950Z,14.92
2023-04-13T10:45:33.053Z,14.94
2023-04-13T10:46:33.107Z,14.94
2023-04-13T10:47:33.125Z,14.99
2023-04-13T10:48:33.123Z,15.10
2023-04-13T10:49:33.151Z,15.16
2023-04-13T10:50:33.170Z,15.17
2023-04-13T10:51:33.202Z,15.19
2023-04-13T10:52:33.225Z,15.20
2023-04-13T10:53:33.252Z,15.09
2023-04-13T10:54:33.281Z,15.06
2023-04-13T10:55:33.322Z,14.98
2023-04-13T10:56:33.335Z,15.11
2023-04-13T10:57:33.357Z,15.20
2023-04-13T10:58:33.459Z,15.19
2023-04-13T10:59:39.184Z,15.34
2023-04-13T11:00:45.452Z,15.34
2023-04-13T11:01:33.455Z,15.41
2023-04-13T11:02:33.747Z,15.39
2023-04-13T11:03:33.603Z,15.38
2023-04-13T11:04:33.592Z,15.35
2023-04-13T11:05:33.590Z,15.34
2023-04-13T11:06:33.583Z,15.19
2023-04-13T11:07:33.612Z,15.11
2023-04-13T11:08:33.637Z,15.02
2023-04-13T11:09:33.668Z,14.98
2023-04-13T11:10:33.686Z,14.94
2023-04-13T11:11:33.712Z,14.86
2023-04-13T11:12:33.760Z,14.81
2023-04-13T11:13:33.760Z,14.54
2023-04-13T11:14:33.802Z,14.54
2023-04-13T11:15:33.845Z,14.45
2023-04-13T11:16:33.884Z,14.39
2023-04-13T11:17:33.900Z,14.40
2023-04-13T11:18:33.913Z,14.27
2023-04-13T11:19:33.914Z,14.17
2023-04-13T11:20:33.950Z,14.21
2023-04-13T11:21:33.972Z,14.21
2023-04-13T11:22:33.999Z,14.18
2023-04-13T11:23:34.015Z,14.28
2023-04-13T11:24:34.085Z,14.29
2023-04-13T11:25:34.075Z,14.32
2023-04-13T11:26:34.186Z,14.28
2023-04-13T11:27:34.114Z,14.32
2023-04-13T11:28:34.152Z,14.22
2023-04-13T11:29:34.166Z,14.22
2023-04-13T11:30:34.191Z,14.33
2023-04-13T11:31:34.250Z,14.28
2023-04-13T11:32:34.360Z,14.43
2023-04-13T11:33:34.287Z,14.36
2023-04-13T11:34:34.292Z,14.52
2023-04-13T11:35:34.322Z,14.64
2023-04-13T11:36:34.347Z,14.75
2023-04-13T11:37:34.365Z,14.92
2023-04-13T11:38:34.405Z,15.01
2023-04-13T11:39:34.416Z,15.20
2023-04-13T11:40:34.445Z,15.31
2023-04-13T11:41:34.471Z,15.41
2023-04-13T11:42:34.496Z,15.35
2023-04-13T11:43:34.520Z,15.54
2023-04-13T11:44:34.548Z,15.54
2023-04-13T11:45:34.575Z,15.62
2023-04-13T11:46:34.622Z,15.59
2023-04-13T11:47:34.671Z,15.59
2023-04-13T11:48:34.650Z,15.68
2023-04-13T11:49:34.678Z,15.67
2023-04-13T11:50:34.702Z,15.71
2023-04-13T11:51:34.725Z,15.59
2023-04-13T11:52:34.767Z,15.60
2023-04-13T11:53:34.769Z,15.59
2023-04-13T11:54:34.798Z,15.57
2023-04-13T11:55:42.567Z,15.64
2023-04-13T11:56:34.847Z,15.64
2023-04-13T11:57:34.901Z,15.60
2023-04-13T11:58:34.901Z,15.68
2023-04-13T11:59:34.947Z,15.72
2023-04-13T12:00:34.964Z,15.67
2023-04-13T12:01:37.541Z,15.80
2023-04-13T12:02:41.649Z,15.86
2023-04-13T12:03:42.513Z,15.75
2023-04-13T12:04:35.173Z,15.87
2023-04-13T12:05:35.588Z,15.86
2023-04-13T12:06:35.437Z,15.87
2023-04-13T12:07:35.354Z,15.76
2023-04-13T12:08:35.545Z,15.74
2023-04-13T12:10:40.537Z,15.72
2023-04-13T12:11:42.032Z,15.72
2023-04-13T12:13:37.551Z,15.87
2023-04-13T12:15:43.969Z,15.65
2023-04-13T12:17:41.044Z,15.44
2023-04-13T12:18:37.277Z,15.44
2023-04-13T12:19:35.758Z,15.43
2023-04-13T12:20:35.531Z,15.19
2023-04-13T12:21:36.459Z,15.16
2023-04-13T12:22:44.204Z,14.83
2023-04-13T12:23:35.723Z,14.78
2023-04-13T12:24:37.574Z,14.58
2023-04-13T12:25:36.319Z,14.55
2023-04-13T12:27:35.746Z,14.17
2023-04-13T12:28:35.673Z,13.97
2023-04-13T12:29:35.711Z,14.03
2023-04-13T12:30:35.732Z,14.00
2023-04-13T12:31:35.852Z,14.00
2023-04-13T12:32:37.195Z,13.99
2023-04-13T12:33:35.802Z,13.99
2023-04-13T12:34:35.862Z,14.03
2023-04-13T12:35:35.856Z,13.89
2023-04-13T12:36:35.882Z,14.00
2023-04-13T12:37:35.929Z,14.06
2023-04-13T12:38:35.935Z,14.06
2023-04-13T12:39:35.958Z,14.21
2023-04-13T12:40:35.983Z,14.21
2023-04-13T12:41:36.055Z,14.29
2023-04-13T12:42:36.031Z,14.39
2023-04-13T12:43:36.056Z,14.37
2023-04-13T12:44:36.087Z,14.57
2023-04-13T12:45:36.105Z,14.64
2023-04-13T12:46:36.183Z,14.72
2023-04-13T12:47:36.190Z,14.83
2023-04-13T12:48:36.183Z,14.94
2023-04-13T12:49:36.210Z,15.02
2023-04-13T12:50:36.233Z,15.31
2023-04-13T12:51:36.263Z,15.32
2023-04-13T12:52:36.281Z,15.49
2023-04-13T12:53:36.311Z,15.51
2023-04-13T12:54:36.335Z,15.62
2023-04-13T12:55:36.357Z,15.60
2023-04-13T12:56:36.412Z,15.64
2023-04-13T12:57:36.429Z,15.69
2023-04-13T12:58:36.439Z,15.71
2023-04-13T12:59:36.472Z,15.75
2023-04-13T13:00:36.516Z,15.75
2023-04-13T13:01:36.735Z,15.75
2023-04-13T13:02:36.825Z,15.78
2023-04-13T13:03:36.675Z,15.80
2023-04-13T13:04:36.612Z,15.71
2023-04-13T13:05:36.631Z,15.59
2023-04-13T13:06:36.645Z,15.59
2023-04-13T13:07:36.669Z,15.51
2023-04-13T13:08:38.599Z,15.53
2023-04-13T13:09:36.752Z,15.46
2023-04-13T13:10:36.749Z,15.53